Time;durP1;ratioP1;P1;durP2;ratioP2;P2;SDS_P1;SDS_P2;PMS_P1;PMS_P2;Temp;Humidity;BMP_temperature;BMP_pressure;BME280_temperature;BME280_humidity;BME280_pressure;Samples;Min_cycle;Max_cycle;Signal;HPM_P1;HPM_P2
2022/10/29 00:00:45;;;;;;;;;;;27.30;60.30;;;;;;5038956;28;19913;-76
2022/10/29 00:03:12;;;;;;;;;;;27.20;63.10;;;;;;5053388;28;20324;-74
2022/10/29 00:05:38;;;;;;;;;;;27.20;63.50;;;;;;5053681;28;19912;-76
2022/10/29 00:08:05;;;;;;;;;;;27.30;62.60;;;;;;5053880;28;19917;-76
2022/10/29 00:10:32;;;;;;;;;;;27.40;62.40;;;;;;5035485;28;19921;-75
2022/10/29 00:13:02;;;;;;;;;;;27.50;62.20;;;;;;5037485;28;20058;-75
2022/10/29 00:15:29;;;;;;;;;;;27.20;63.70;;;;;;5035158;28;19925;-77
2022/10/29 00:17:56;;;;;;;;;;;27.50;63.70;;;;;;5049282;28;19912;-78
2022/10/29 00:20:22;;;;;;;;;;;27.80;64.80;;;;;;5036249;28;19990;-78
2022/10/29 00:22:52;;;;;;;;;;;28.20;64.80;;;;;;5034054;28;20279;-75
2022/10/29 00:25:19;;;;;;;;;;;28.30;64.10;;;;;;5034757;28;19944;-72
2022/10/29 00:27:45;;;;;;;;;;;28.20;62.30;;;;;;5043472;28;19916;-74
2022/10/29 00:30:12;;;;;;;;;;;28.30;63.30;;;;;;5041480;28;19924;-76
2022/10/29 00:32:39;;;;;;;;;;;28.10;60.10;;;;;;5052751;28;20333;-76
2022/10/29 00:35:06;;;;;;;;;;;27.20;60.30;;;;;;5037928;28;20010;-76
2022/10/29 00:37:32;;;;;;;;;;;26.80;61.00;;;;;;5033723;28;19952;-76
2022/10/29 00:39:59;;;;;;;;;;;26.90;60.80;;;;;;5034469;28;19913;-75
2022/10/29 00:42:25;;;;;;;;;;;27.10;63.10;;;;;;5034299;28;19913;-74
2022/10/29 00:44:52;;;;;;;;;;;27.50;62.10;;;;;;5039396;28;19976;-77
2022/10/29 00:47:22;;;;;;;;;;;27.70;61.30;;;;;;5039514;28;20421;-76
2022/10/29 00:50:01;;;;;;;;;;;27.70;61.50;;;;;;5039148;28;19921;-77
2022/10/29 00:52:30;;;;;;;;;;;27.70;62.10;;;;;;5033842;28;19917;-75
2022/10/29 00:55:00;;;;;;;;;;;27.70;62.50;;;;;;5034256;28;19945;-76
2022/10/29 00:57:33;;;;;;;;;;;27.90;62.20;;;;;;5033685;28;20124;-76
2022/10/29 01:00:00;;;;;;;;;;;28.10;63.00;;;;;;5033973;28;19919;-76
2022/10/29 01:02:28;;;;;;;;;;;28.20;60.00;;;;;;5033400;28;19917;-78
2022/10/29 01:04:55;;;;;;;;;;;28.40;61.10;;;;;;5045241;28;20437;-74
2022/10/29 01:07:22;;;;;;;;;;;28.40;62.60;;;;;;5053348;28;19913;-75
2022/10/29 01:09:49;;;;;;;;;;;28.50;60.60;;;;;;5039427;28;19956;-72
2022/10/29 01:12:32;;;;;;;;;;;28.70;62.90;;;;;;5033079;28;19999;-74
2022/10/29 01:15:02;;;;;;;;;;;29.20;64.80;;;;;;5034048;28;19951;-71
2022/10/29 01:17:31;;;;;;;;;;;29.50;63.30;;;;;;5033321;28;19913;-74
2022/10/29 01:20:16;;;;;;;;;;;29.70;65.20;;;;;;5033835;28;19920;-74
2022/10/29 01:22:43;;;;;;;;;;;29.30;58.10;;;;;;5052860;28;20375;-69
2022/10/29 01:25:27;;;;;;;;;;;29.10;61.60;;;;;;5036303;28;19949;-68
2022/10/29 01:28:20;;;;;;;;;;;29.00;60.10;;;;;;5032782;28;20359;-71
2022/10/29 01:30:46;;;;;;;;;;;29.20;63.40;;;;;;5009511;28;20023;-70
2022/10/29 01:33:16;;;;;;;;;;;29.60;64.20;;;;;;5032865;28;20445;-68
2022/10/29 01:35:52;;;;;;;;;;;29.90;65.90;;;;;;5048780;28;20313;-73
2022/10/29 01:38:24;;;;;;;;;;;30.10;60.60;;;;;;5050470;28;20250;-72
2022/10/29 01:40:54;;;;;;;;;;;30.10;58.50;;;;;;5032600;28;20043;-72
2022/10/29 01:43:24;;;;;;;;;;;30.20;61.10;;;;;;5034426;28;20412;-69
2022/10/29 01:45:58;;;;;;;;;;;30.50;60.00;;;;;;5032593;28;19916;-71
2022/10/29 01:48:27;;;;;;;;;;;30.60;56.80;;;;;;5033192;28;19913;-73
2022/10/29 01:50:55;;;;;;;;;;;30.30;58.70;;;;;;5032517;28;19935;-73
2022/10/29 01:53:22;;;;;;;;;;;30.40;58.70;;;;;;5042583;28;19913;-70
2022/10/29 01:55:48;;;;;;;;;;;30.60;57.60;;;;;;5051861;28;19908;-72
2022/10/29 01:58:15;;;;;;;;;;;30.80;60.30;;;;;;5050375;28;19913;-76
2022/10/29 02:00:45;;;;;;;;;;;31.00;59.30;;;;;;5033032;28;20344;-75
2022/10/29 02:03:18;;;;;;;;;;;31.20;58.70;;;;;;5039470;28;19913;-71
2022/10/29 02:05:57;;;;;;;;;;;31.30;58.30;;;;;;5036554;28;19970;-75
2022/10/29 02:08:29;;;;;;;;;;;31.40;60.30;;;;;;5051174;28;20428;-71
2022/10/29 02:11:01;;;;;;;;;;;31.50;60.90;;;;;;5051299;28;19927;-76
2022/10/29 02:13:30;;;;;;;;;;;31.40;56.30;;;;;;5049803;28;20294;-73
2022/10/29 02:15:58;;;;;;;;;;;30.50;56.40;;;;;;5032046;28;20048;-77
2022/10/29 02:18:25;;;;;;;;;;;30.30;59.20;;;;;;5032953;28;19909;-70
2022/10/29 02:20:51;;;;;;;;;;;30.40;57.90;;;;;;5037099;28;19916;-71
2022/10/29 02:23:18;;;;;;;;;;;30.80;60.40;;;;;;5050960;28;19909;-73
2022/10/29 02:25:46;;;;;;;;;;;31.10;59.90;;;;;;5032014;28;19925;-75
2022/10/29 02:28:12;;;;;;;;;;;31.20;56.50;;;;;;5048441;28;19975;-70
2022/10/29 02:30:39;;;;;;;;;;;30.90;55.80;;;;;;5050196;28;19917;-70
2022/10/29 02:33:06;;;;;;;;;;;30.40;56.20;;;;;;5051369;28;19913;-74
2022/10/29 02:35:32;;;;;;;;;;;30.00;54.50;;;;;;5033154;28;19909;-74
2022/10/29 02:37:59;;;;;;;;;;;29.70;57.00;;;;;;5022734;28;19913;-71
2022/10/29 02:40:26;;;;;;;;;;;29.70;59.30;;;;;;5033349;28;19914;-75
2022/10/29 02:42:53;;;;;;;;;;;30.00;56.90;;;;;;5031892;28;20016;-74
2022/10/29 02:45:19;;;;;;;;;;;30.10;55.20;;;;;;5032802;28;19913;-76
2022/10/29 02:47:46;;;;;;;;;;;30.30;56.50;;;;;;5049868;28;19917;-70
2022/10/29 02:50:13;;;;;;;;;;;30.30;57.30;;;;;;5034907;28;19932;-71
2022/10/29 02:52:40;;;;;;;;;;;30.30;55.30;;;;;;5031991;28;19920;-72
2022/10/29 02:55:06;;;;;;;;;;;29.90;54.80;;;;;;5050446;28;20410;-71
2022/10/29 02:57:33;;;;;;;;;;;30.10;56.70;;;;;;5054430;28;20000;-71
2022/10/29 03:00:00;;;;;;;;;;;30.00;56.70;;;;;;5040090;28;20260;-72
2022/10/29 03:02:26;;;;;;;;;;;30.30;55.00;;;;;;5044194;28;19912;-74
2022/10/29 03:04:53;;;;;;;;;;;30.40;54.90;;;;;;5041196;28;19920;-70
2022/10/29 03:07:20;;;;;;;;;;;30.60;59.10;;;;;;5035588;28;19927;-72
2022/10/29 03:09:47;;;;;;;;;;;30.90;57.20;;;;;;5035870;28;20430;-77
2022/10/29 03:12:13;;;;;;;;;;;30.90;55.10;;;;;;5037306;28;19924;-74
2022/10/29 03:14:40;;;;;;;;;;;30.30;53.90;;;;;;5054437;28;19922;-70
2022/10/29 03:17:06;;;;;;;;;;;30.30;53.60;;;;;;5042133;28;19917;-71
2022/10/29 03:19:33;;;;;;;;;;;30.40;54.80;;;;;;5043472;28;20015;-69
2022/10/29 03:22:00;;;;;;;;;;;30.30;54.10;;;;;;5054688;28;19976;-71
2022/10/29 03:24:26;;;;;;;;;;;30.50;55.60;;;;;;5053973;28;20337;-70
2022/10/29 03:26:53;;;;;;;;;;;30.70;57.60;;;;;;5055232;28;19927;-71
2022/10/29 03:29:20;;;;;;;;;;;30.90;54.40;;;;;;5044673;28;20031;-73
2022/10/29 03:31:46;;;;;;;;;;;30.40;51.10;;;;;;5034544;28;19925;-75
2022/10/29 03:34:13;;;;;;;;;;;29.90;52.60;;;;;;5035727;28;19952;-75
2022/10/29 03:36:40;;;;;;;;;;;29.90;52.00;;;;;;5035461;28;20020;-77
2022/10/29 03:39:06;;;;;;;;;;;30.00;54.00;;;;;;5035707;28;20391;-74
2022/10/29 03:41:33;;;;;;;;;;;29.90;52.00;;;;;;5050699;28;20458;-71
2022/10/29 03:44:00;;;;;;;;;;;29.60;55.10;;;;;;5036982;28;19913;-74
2022/10/29 03:46:26;;;;;;;;;;;29.60;54.20;;;;;;5034692;28;19917;-70
2022/10/29 03:48:53;;;;;;;;;;;29.60;52.80;;;;;;5035557;28;20505;-70
2022/10/29 03:51:19;;;;;;;;;;;29.80;54.80;;;;;;5034743;28;19921;-73
2022/10/29 03:53:46;;;;;;;;;;;30.10;55.40;;;;;;5036982;28;20004;-72
2022/10/29 03:56:13;;;;;;;;;;;30.30;53.20;;;;;;5054510;28;19951;-72
2022/10/29 03:58:39;;;;;;;;;;;30.50;55.40;;;;;;5050451;28;19913;-74
2022/10/29 04:01:07;;;;;;;;;;;30.60;55.20;;;;;;5034333;28;20450;-71
2022/10/29 04:03:35;;;;;;;;;;;30.60;53.00;;;;;;5035352;28;19927;-70
2022/10/29 04:06:07;;;;;;;;;;;30.60;52.60;;;;;;5033188;28;20032;-69
2022/10/29 04:08:34;;;;;;;;;;;30.60;54.10;;;;;;5035207;28;19912;-70
2022/10/29 04:11:00;;;;;;;;;;;30.40;54.60;;;;;;5042535;28;19925;-70
2022/10/29 04:13:27;;;;;;;;;;;30.00;55.80;;;;;;5050915;28;19920;-76
2022/10/29 04:15:54;;;;;;;;;;;29.30;55.60;;;;;;5034118;28;20318;-70
2022/10/29 04:18:23;;;;;;;;;;;29.10;57.20;;;;;;5042143;28;20015;-72
2022/10/29 04:20:49;;;;;;;;;;;29.20;57.00;;;;;;5038688;28;19912;-71
2022/10/29 04:23:16;;;;;;;;;;;29.20;56.50;;;;;;5053202;28;19909;-69
2022/10/29 04:25:43;;;;;;;;;;;29.20;55.00;;;;;;5032469;28;19929;-72
2022/10/29 04:28:09;;;;;;;;;;;29.30;56.50;;;;;;5032725;28;19910;-71
2022/10/29 04:30:36;;;;;;;;;;;29.50;55.90;;;;;;5014549;28;20368;-70
2022/10/29 04:33:02;;;;;;;;;;;29.60;55.70;;;;;;5022557;28;19913;-68
2022/10/29 04:35:29;;;;;;;;;;;29.50;55.50;;;;;;5014993;28;20305;-72
2022/10/29 04:37:56;;;;;;;;;;;29.60;55.40;;;;;;5013660;28;20249;-69
2022/10/29 04:40:26;;;;;;;;;;;29.40;56.00;;;;;;5020639;28;20288;-70
2022/10/29 04:42:52;;;;;;;;;;;28.90;56.00;;;;;;5033498;28;19909;-71
2022/10/29 04:45:19;;;;;;;;;;;28.60;58.40;;;;;;5022357;28;19940;-69
2022/10/29 04:47:46;;;;;;;;;;;28.30;56.70;;;;;;5033434;28;20414;-69
2022/10/29 04:50:13;;;;;;;;;;;27.90;57.80;;;;;;5028707;28;20406;-72
2022/10/29 04:52:39;;;;;;;;;;;27.50;57.40;;;;;;5033565;28;19913;-73
2022/10/29 04:55:06;;;;;;;;;;;27.50;59.30;;;;;;5017600;28;20352;-68
2022/10/29 04:57:33;;;;;;;;;;;27.70;59.80;;;;;;5013673;28;19910;-70
2022/10/29 04:59:59;;;;;;;;;;;27.90;57.60;;;;;;5014076;28;19917;-69
2022/10/29 05:02:26;;;;;;;;;;;28.10;59.10;;;;;;5020423;28;19941;-70
2022/10/29 05:04:53;;;;;;;;;;;28.30;59.40;;;;;;5019245;28;19914;-70
2022/10/29 05:07:19;;;;;;;;;;;28.40;58.50;;;;;;5013530;28;20004;-70
2022/10/29 05:09:46;;;;;;;;;;;28.40;58.30;;;;;;5013750;28;19917;-69
2022/10/29 05:12:12;;;;;;;;;;;28.40;57.80;;;;;;5013303;28;19917;-69
2022/10/29 05:14:39;;;;;;;;;;;27.80;58.20;;;;;;5015915;28;19913;-74
2022/10/29 05:17:06;;;;;;;;;;;27.70;58.70;;;;;;5030026;28;19917;-70
2022/10/29 05:19:32;;;;;;;;;;;27.10;58.40;;;;;;5029748;28;19960;-70
2022/10/29 05:21:59;;;;;;;;;;;27.10;58.90;;;;;;5031882;28;20326;-70
2022/10/29 05:24:26;;;;;;;;;;;27.10;59.30;;;;;;5021876;28;20367;-71
2022/10/29 05:26:52;;;;;;;;;;;27.00;59.00;;;;;;5010401;28;19926;-69
2022/10/29 05:29:20;;;;;;;;;;;26.90;58.70;;;;;;5003986;28;19937;-69
2022/10/29 05:31:47;;;;;;;;;;;26.90;59.90;;;;;;5001479;28;19925;-69
2022/10/29 05:34:13;;;;;;;;;;;26.80;58.70;;;;;;5004662;28;19921;-73
2022/10/29 05:36:40;;;;;;;;;;;26.60;59.40;;;;;;5001116;28;19920;-69
2022/10/29 05:39:06;;;;;;;;;;;26.70;60.20;;;;;;4996542;28;19913;-76
2022/10/29 05:41:33;;;;;;;;;;;26.90;60.80;;;;;;4993302;28;20393;-75
2022/10/29 05:44:00;;;;;;;;;;;27.10;60.00;;;;;;4993576;28;19920;-78
2022/10/29 05:46:26;;;;;;;;;;;27.10;60.90;;;;;;4993216;28;20009;-75
2022/10/29 05:48:53;;;;;;;;;;;27.10;60.50;;;;;;5005622;28;19917;-74
2022/10/29 05:51:20;;;;;;;;;;;26.90;60.30;;;;;;5011887;28;19921;-78
2022/10/29 05:53:47;;;;;;;;;;;26.70;59.80;;;;;;5006758;28;20373;-75
2022/10/29 05:56:14;;;;;;;;;;;26.60;60.80;;;;;;5000899;28;19971;-76
2022/10/29 05:58:40;;;;;;;;;;;26.60;60.10;;;;;;5001413;28;19921;-78
2022/10/29 06:01:10;;;;;;;;;;;26.30;60.40;;;;;;4992943;28;20013;-75
2022/10/29 06:03:37;;;;;;;;;;;26.20;60.60;;;;;;4993589;28;19914;-77
2022/10/29 06:06:04;;;;;;;;;;;26.10;60.70;;;;;;4992854;28;20442;-75
2022/10/29 06:08:30;;;;;;;;;;;26.00;59.80;;;;;;4994183;28;19913;-75
2022/10/29 06:10:59;;;;;;;;;;;25.90;60.70;;;;;;5004208;28;20016;-73
2022/10/29 06:13:26;;;;;;;;;;;25.90;60.30;;;;;;5010499;28;20016;-78
2022/10/29 06:15:57;;;;;;;;;;;25.80;61.00;;;;;;4991558;28;19910;-74
2022/10/29 06:18:23;;;;;;;;;;;25.70;60.70;;;;;;4993794;28;19917;-76
2022/10/29 06:20:50;;;;;;;;;;;25.70;60.40;;;;;;4997527;28;19920;-78
2022/10/29 06:23:17;;;;;;;;;;;25.70;61.70;;;;;;5011339;28;19913;-75
2022/10/29 06:25:43;;;;;;;;;;;25.60;60.90;;;;;;5024971;28;19928;-76
2022/10/29 06:28:13;;;;;;;;;;;25.60;60.90;;;;;;5051169;28;20391;-72
2022/10/29 06:30:40;;;;;;;;;;;25.60;60.80;;;;;;5055341;28;19921;-77
2022/10/29 06:33:07;;;;;;;;;;;25.50;60.10;;;;;;5055249;28;19912;-75
2022/10/29 06:35:33;;;;;;;;;;;25.40;60.90;;;;;;5037132;28;19963;-75
2022/10/29 06:38:00;;;;;;;;;;;25.20;60.20;;;;;;5035918;28;19913;-76
2022/10/29 06:40:27;;;;;;;;;;;25.10;61.00;;;;;;5044084;28;19917;-75
2022/10/29 06:43:00;;;;;;;;;;;25.10;60.60;;;;;;5036065;28;19909;-76
2022/10/29 06:45:27;;;;;;;;;;;24.90;60.40;;;;;;5052638;28;19921;-76
2022/10/29 06:47:53;;;;;;;;;;;24.90;60.80;;;;;;5055516;28;19909;-73
2022/10/29 06:50:20;;;;;;;;;;;24.90;60.30;;;;;;5040259;28;20453;-78
2022/10/29 06:52:54;;;;;;;;;;;24.90;60.60;;;;;;5054863;28;20409;-74
2022/10/29 06:55:21;;;;;;;;;;;24.90;60.70;;;;;;5037686;28;20391;-76
2022/10/29 06:57:48;;;;;;;;;;;24.70;60.40;;;;;;5050258;28;19917;-76
2022/10/29 07:00:14;;;;;;;;;;;24.60;60.70;;;;;;5038414;28;19913;-77
2022/10/29 07:02:41;;;;;;;;;;;24.60;60.90;;;;;;5052037;28;19913;-78
2022/10/29 07:05:08;;;;;;;;;;;24.50;60.80;;;;;;5049194;28;19917;-77
2022/10/29 07:07:34;;;;;;;;;;;24.50;61.40;;;;;;5040597;28;19956;-77
2022/10/29 07:10:01;;;;;;;;;;;24.40;61.20;;;;;;5035792;28;19921;-76
2022/10/29 07:12:28;;;;;;;;;;;24.30;61.20;;;;;;5039285;28;20023;-77
2022/10/29 07:14:57;;;;;;;;;;;24.20;61.60;;;;;;5022925;28;19913;-73
2022/10/29 07:17:24;;;;;;;;;;;24.10;61.90;;;;;;5035351;28;19910;-75
2022/10/29 07:19:51;;;;;;;;;;;23.90;61.20;;;;;;5039795;28;20032;-77
2022/10/29 07:22:17;;;;;;;;;;;23.90;61.70;;;;;;5035099;28;19913;-75
2022/10/29 07:24:44;;;;;;;;;;;23.80;61.40;;;;;;5044260;28;19920;-73
2022/10/29 07:27:10;;;;;;;;;;;23.80;61.70;;;;;;5053812;28;19935;-77
2022/10/29 07:29:37;;;;;;;;;;;23.70;61.50;;;;;;5036457;28;19920;-78
2022/10/29 07:32:04;;;;;;;;;;;23.70;62.10;;;;;;5034734;28;19975;-77
2022/10/29 07:34:31;;;;;;;;;;;23.60;62.20;;;;;;5035774;28;19913;-75
2022/10/29 07:36:57;;;;;;;;;;;23.50;63.00;;;;;;5054439;28;19913;-76
2022/10/29 07:39:24;;;;;;;;;;;23.50;62.60;;;;;;5051834;28;20375;-76
2022/10/29 07:41:51;;;;;;;;;;;23.40;63.00;;;;;;5034627;28;20355;-78
2022/10/29 07:44:17;;;;;;;;;;;23.30;63.40;;;;;;5037285;28;20363;-77
2022/10/29 07:46:44;;;;;;;;;;;23.20;62.90;;;;;;5034769;28;20450;-75
2022/10/29 07:49:10;;;;;;;;;;;23.10;63.10;;;;;;5045977;28;20315;-75
2022/10/29 07:51:37;;;;;;;;;;;23.00;63.40;;;;;;5035051;28;20409;-76
2022/10/29 07:54:04;;;;;;;;;;;22.90;63.90;;;;;;5046982;28;20003;-75
2022/10/29 07:56:31;;;;;;;;;;;22.80;63.80;;;;;;5016989;28;20348;-78
2022/10/29 07:58:58;;;;;;;;;;;22.70;64.20;;;;;;5035336;28;19924;-77
2022/10/29 08:01:24;;;;;;;;;;;22.60;64.40;;;;;;5034324;28;19999;-75
2022/10/29 08:03:51;;;;;;;;;;;22.50;64.50;;;;;;5039763;28;20381;-75
2022/10/29 08:06:17;;;;;;;;;;;22.40;64.50;;;;;;5053632;28;19916;-77
2022/10/29 08:08:44;;;;;;;;;;;22.30;64.60;;;;;;5050988;28;19920;-78
2022/10/29 08:11:11;;;;;;;;;;;22.30;64.80;;;;;;5052566;28;20375;-75
2022/10/29 08:13:37;;;;;;;;;;;22.20;64.80;;;;;;5049871;28;19975;-78
2022/10/29 08:16:04;;;;;;;;;;;22.10;65.70;;;;;;5034372;28;20423;-76
2022/10/29 08:18:31;;;;;;;;;;;21.90;65.50;;;;;;5043319;28;20015;-74
2022/10/29 08:20:58;;;;;;;;;;;21.80;65.90;;;;;;5039989;28;20394;-77
2022/10/29 08:23:24;;;;;;;;;;;21.70;65.80;;;;;;5051121;28;19923;-73
2022/10/29 08:25:51;;;;;;;;;;;21.70;66.20;;;;;;5037204;28;19960;-74
2022/10/29 08:28:18;;;;;;;;;;;21.60;66.30;;;;;;5052990;28;19912;-79
2022/10/29 08:30:48;;;;;;;;;;;21.50;66.10;;;;;;5033654;28;19920;-73
2022/10/29 08:33:14;;;;;;;;;;;21.40;66.40;;;;;;5043374;28;20425;-74
2022/10/29 08:35:41;;;;;;;;;;;21.40;66.50;;;;;;5033870;28;20008;-77
2022/10/29 08:38:08;;;;;;;;;;;21.30;66.70;;;;;;5033103;28;19921;-74
2022/10/29 08:40:38;;;;;;;;;;;21.30;67.10;;;;;;5034435;28;19935;-76
2022/10/29 08:43:16;;;;;;;;;;;21.20;67.30;;;;;;5037960;28;20363;-76
2022/10/29 08:45:46;;;;;;;;;;;21.10;67.20;;;;;;5033651;28;20076;-76
2022/10/29 08:48:24;;;;;;;;;;;21.10;67.10;;;;;;5037649;28;20454;-75
2022/10/29 08:51:09;;;;;;;;;;;21.00;66.90;;;;;;5033036;28;19925;-76
2022/10/29 08:53:38;;;;;;;;;;;20.90;67.30;;;;;;5034175;28;20019;-75
2022/10/29 08:56:10;;;;;;;;;;;20.80;67.50;;;;;;5033297;28;19913;-77
2022/10/29 08:58:42;;;;;;;;;;;20.80;67.30;;;;;;5034084;28;20302;-77
2022/10/29 09:01:10;;;;;;;;;;;20.80;67.30;;;;;;5046478;28;20396;-75
2022/10/29 09:03:37;;;;;;;;;;;20.70;67.00;;;;;;5049075;28;19925;-79
2022/10/29 09:06:04;;;;;;;;;;;20.70;67.00;;;;;;5035606;28;19924;-77
2022/10/29 09:08:31;;;;;;;;;;;20.70;67.20;;;;;;5045633;28;20003;-77
2022/10/29 09:11:03;;;;;;;;;;;20.60;67.30;;;;;;5032590;28;19921;-78
2022/10/29 09:13:44;;;;;;;;;;;20.60;67.30;;;;;;5033242;28;19974;-78
2022/10/29 09:16:17;;;;;;;;;;;20.50;67.30;;;;;;5032646;28;19909;-78
2022/10/29 09:19:01;;;;;;;;;;;20.50;67.30;;;;;;5049301;28;20260;-76
2022/10/29 09:21:46;;;;;;;;;;;20.40;67.50;;;;;;5052464;28;19970;-74
2022/10/29 09:24:13;;;;;;;;;;;20.40;67.70;;;;;;5043796;28;20000;-76
2022/10/29 09:26:48;;;;;;;;;;;20.30;67.70;;;;;;5032446;28;19968;-74
2022/10/29 09:29:33;;;;;;;;;;;20.30;68.00;;;;;;5033214;28;19917;-75
2022/10/29 09:32:02;;;;;;;;;;;20.30;67.90;;;;;;5032135;28;20268;-76
2022/10/29 09:34:29;;;;;;;;;;;20.20;68.30;;;;;;5042672;28;19967;-76
2022/10/29 09:36:56;;;;;;;;;;;20.10;68.50;;;;;;5051439;28;19963;-75
2022/10/29 09:39:34;;;;;;;;;;;20.10;68.70;;;;;;5051501;28;19913;-70
2022/10/29 09:42:01;;;;;;;;;;;20.10;69.00;;;;;;5051293;28;19913;-72
2022/10/29 09:44:35;;;;;;;;;;;20.00;69.60;;;;;;5041482;28;19913;-71
2022/10/29 09:47:04;;;;;;;;;;;19.90;69.40;;;;;;5032226;28;20031;-75
2022/10/29 09:49:31;;;;;;;;;;;19.90;69.30;;;;;;5032822;28;20485;-74
2022/10/29 09:52:00;;;;;;;;;;;19.90;69.70;;;;;;5042149;28;20054;-71
2022/10/29 09:54:28;;;;;;;;;;;19.80;69.70;;;;;;5042128;28;19968;-72
2022/10/29 09:56:56;;;;;;;;;;;19.80;70.00;;;;;;5042849;28;19909;-73
2022/10/29 09:59:31;;;;;;;;;;;19.70;70.20;;;;;;5038231;28;19913;-70
2022/10/29 10:01:58;;;;;;;;;;;19.70;70.30;;;;;;5048238;28;19924;-70
2022/10/29 10:04:30;;;;;;;;;;;19.60;70.90;;;;;;5039834;28;19913;-70
2022/10/29 10:07:11;;;;;;;;;;;19.50;70.90;;;;;;5032442;28;19917;-72
2022/10/29 10:09:51;;;;;;;;;;;19.50;71.00;;;;;;5036745;28;19963;-70
2022/10/29 10:12:19;;;;;;;;;;;19.40;71.40;;;;;;5046230;28;19968;-73
2022/10/29 10:14:46;;;;;;;;;;;19.40;71.40;;;;;;5032418;28;19913;-72
2022/10/29 10:17:14;;;;;;;;;;;19.30;71.60;;;;;;5031553;28;19913;-76
2022/10/29 10:19:44;;;;;;;;;;;19.30;72.00;;;;;;5032517;28;19999;-75
2022/10/29 10:22:19;;;;;;;;;;;19.20;72.30;;;;;;5046304;28;19913;-75
2022/10/29 10:24:46;;;;;;;;;;;19.10;72.20;;;;;;5039071;28;19913;-73
2022/10/29 10:27:18;;;;;;;;;;;19.10;72.70;;;;;;5051345;28;20383;-73
2022/10/29 10:30:03;;;;;;;;;;;19.00;72.70;;;;;;5036877;28;19914;-70
2022/10/29 10:32:30;;;;;;;;;;;19.00;73.10;;;;;;5031525;28;19964;-70
2022/10/29 10:34:57;;;;;;;;;;;18.90;73.30;;;;;;5039372;28;19923;-73
2022/10/29 10:37:24;;;;;;;;;;;18.90;73.50;;;;;;5031446;28;20017;-74
2022/10/29 10:40:00;;;;;;;;;;;18.80;73.90;;;;;;5045755;28;20308;-69
2022/10/29 10:42:28;;;;;;;;;;;18.80;73.90;;;;;;5039079;28;19912;-69
2022/10/29 10:45:14;;;;;;;;;;;18.70;74.20;;;;;;5036633;28;19924;-72
2022/10/29 10:47:43;;;;;;;;;;;18.70;74.60;;;;;;5031566;28;19909;-71
2022/10/29 10:50:29;;;;;;;;;;;18.70;74.70;;;;;;5032069;28;20295;-70
2022/10/29 10:53:03;;;;;;;;;;;18.60;75.00;;;;;;5031518;28;20402;-71
2022/10/29 10:55:31;;;;;;;;;;;18.50;75.50;;;;;;5032740;28;19916;-72
2022/10/29 10:57:58;;;;;;;;;;;18.50;75.20;;;;;;5031418;28;20405;-77
2022/10/29 11:00:35;;;;;;;;;;;18.50;75.80;;;;;;5047371;28;20279;-71
2022/10/29 11:03:23;;;;;;;;;;;18.50;75.90;;;;;;5050240;28;20000;-74
2022/10/29 11:05:53;;;;;;;;;;;18.50;75.40;;;;;;5050011;28;19970;-71
2022/10/29 11:08:19;;;;;;;;;;;18.50;75.70;;;;;;5049828;28;19912;-71
2022/10/29 11:10:54;;;;;;;;;;;18.50;76.00;;;;;;5031368;28;19929;-71
2022/10/29 11:13:31;;;;;;;;;;;18.50;76.10;;;;;;5040957;28;19919;-75
2022/10/29 11:16:01;;;;;;;;;;;18.40;76.30;;;;;;5036998;28;19916;-70
2022/10/29 11:18:31;;;;;;;;;;;18.40;76.30;;;;;;5052671;28;19965;-76
2022/10/29 11:21:17;;;;;;;;;;;18.40;76.10;;;;;;5033455;28;19913;-71
2022/10/29 11:24:23;;;;;;;;;;;18.50;76.40;;;;;;5034292;28;19913;-70
2022/10/29 11:26:55;;;;;;;;;;;18.40;76.50;;;;;;4971848;28;19922;-71
2022/10/29 11:29:30;;;;;;;;;;;18.40;76.80;;;;;;4990624;28;19948;-69
2022/10/29 11:31:56;;;;;;;;;;;18.40;76.90;;;;;;5021682;28;19921;-69
2022/10/29 11:34:28;;;;;;;;;;;18.40;76.90;;;;;;5052423;28;19928;-72
2022/10/29 11:37:01;;;;;;;;;;;18.40;76.80;;;;;;5054981;28;19963;-70
2022/10/29 11:39:27;;;;;;;;;;;18.40;77.00;;;;;;5052840;28;19921;-73
2022/10/29 11:41:58;;;;;;;;;;;18.40;77.10;;;;;;5054649;28;19995;-70
2022/10/29 11:44:25;;;;;;;;;;;18.40;76.70;;;;;;5044598;28;20364;-71
2022/10/29 11:47:10;;;;;;;;;;;18.50;77.10;;;;;;5034433;28;19909;-71
2022/10/29 11:49:54;;;;;;;;;;;18.50;77.10;;;;;;5035531;28;19917;-75
2022/10/29 11:52:27;;;;;;;;;;;18.40;77.30;;;;;;5034226;28;19917;-72
2022/10/29 11:54:54;;;;;;;;;;;18.40;77.70;;;;;;5034807;28;20375;-76
2022/10/29 11:57:32;;;;;;;;;;;18.40;77.60;;;;;;5034018;28;19913;-72
2022/10/29 12:00:03;;;;;;;;;;;18.50;77.80;;;;;;5048161;28;19942;-71
2022/10/29 12:02:38;;;;;;;;;;;18.50;78.00;;;;;;5054018;28;19944;-69
2022/10/29 12:05:05;;;;;;;;;;;18.40;77.90;;;;;;5038169;28;19917;-73
2022/10/29 12:07:40;;;;;;;;;;;18.50;77.80;;;;;;5041965;28;19913;-70
2022/10/29 12:10:10;;;;;;;;;;;18.50;77.90;;;;;;5037366;28;19917;-69
2022/10/29 12:12:37;;;;;;;;;;;18.40;78.10;;;;;;5033584;28;19910;-69
2022/10/29 12:15:24;;;;;;;;;;;18.40;78.40;;;;;;5034237;28;19967;-70
2022/10/29 12:17:56;;;;;;;;;;;18.40;78.30;;;;;;5048680;28;19917;-69
2022/10/29 12:20:55;;;;;;;;;;;18.40;78.60;;;;;;5036477;28;19913;-70
2022/10/29 12:23:42;;;;;;;;;;;18.30;80.10;;;;;;5008167;28;19931;-70
2022/10/29 12:26:29;;;;;;;;;;;18.30;79.80;;;;;;5014533;28;20288;-70
2022/10/29 12:28:57;;;;;;;;;;;18.20;80.30;;;;;;5038982;28;19921;-71
2022/10/29 12:31:28;;;;;;;;;;;18.10;80.60;;;;;;5052011;28;20016;-69
2022/10/29 12:33:55;;;;;;;;;;;18.00;81.10;;;;;;5044591;28;19913;-71
2022/10/29 12:36:21;;;;;;;;;;;17.90;81.50;;;;;;5033408;28;19913;-70
2022/10/29 12:39:10;;;;;;;;;;;17.70;82.00;;;;;;5033963;28;19920;-71
2022/10/29 12:41:48;;;;;;;;;;;17.60;82.40;;;;;;5041410;28;19951;-71
2022/10/29 12:44:17;;;;;;;;;;;17.60;82.80;;;;;;5044040;28;19913;-69
2022/10/29 12:46:48;;;;;;;;;;;17.50;82.80;;;;;;5033092;28;19909;-71
2022/10/29 12:49:21;;;;;;;;;;;17.50;82.80;;;;;;5034287;28;19913;-69
2022/10/29 12:52:01;;;;;;;;;;;17.50;82.80;;;;;;5033107;28;19917;-70
2022/10/29 12:54:34;;;;;;;;;;;17.50;83.30;;;;;;5033097;28;19925;-69
2022/10/29 12:57:04;;;;;;;;;;;17.50;84.00;;;;;;5031549;28;19909;-70
2022/10/29 12:59:32;;;;;;;;;;;17.40;84.00;;;;;;5036559;28;20379;-70
2022/10/29 13:02:31;;;;;;;;;;;17.40;84.40;;;;;;5031766;28;19928;-69
2022/10/29 13:05:09;;;;;;;;;;;17.40;84.70;;;;;;5020908;28;19979;-71
2022/10/29 13:07:37;;;;;;;;;;;17.40;84.90;;;;;;5048182;28;20431;-69
2022/10/29 13:10:21;;;;;;;;;;;17.40;84.90;;;;;;5033499;28;20437;-72
2022/10/29 13:12:54;;;;;;;;;;;17.40;84.90;;;;;;5033165;28;19924;-69
2022/10/29 13:15:22;;;;;;;;;;;17.40;85.30;;;;;;5040283;28;19920;-71
2022/10/29 13:17:50;;;;;;;;;;;17.30;85.50;;;;;;5052985;28;19908;-71
2022/10/29 13:20:37;;;;;;;;;;;17.30;85.70;;;;;;5047733;28;19920;-72
2022/10/29 13:23:23;;;;;;;;;;;17.20;85.70;;;;;;5052658;28;20000;-69
2022/10/29 13:25:51;;;;;;;;;;;17.10;86.30;;;;;;5052348;28;19944;-70
2022/10/29 13:28:17;;;;;;;;;;;17.10;86.20;;;;;;5051996;28;19917;-72
2022/10/29 13:30:45;;;;;;;;;;;17.00;86.60;;;;;;5048291;28;19921;-69
2022/10/29 13:33:27;;;;;;;;;;;17.00;86.80;;;;;;5045325;28;19912;-69
2022/10/29 13:35:53;;;;;;;;;;;17.00;87.00;;;;;;5052234;28;19952;-72
2022/10/29 13:38:40;;;;;;;;;;;17.00;86.80;;;;;;5050686;28;19912;-70
2022/10/29 13:41:10;;;;;;;;;;;16.90;86.60;;;;;;5022286;28;19916;-73
2022/10/29 13:43:38;;;;;;;;;;;16.90;86.40;;;;;;5033491;28;20873;-73
2022/10/29 13:46:14;;;;;;;;;;;16.90;86.30;;;;;;5039399;28;19923;-73
2022/10/29 13:48:41;;;;;;;;;;;16.90;86.70;;;;;;5050546;28;19935;-69
2022/10/29 13:51:10;;;;;;;;;;;16.80;86.90;;;;;;5051673;28;20086;-69
2022/10/29 13:53:40;;;;;;;;;;;16.70;87.20;;;;;;5042427;28;20000;-71
2022/10/29 13:56:10;;;;;;;;;;;16.70;87.50;;;;;;5047296;28;19913;-69
2022/10/29 13:58:40;;;;;;;;;;;16.60;87.20;;;;;;5033375;28;20050;-71
2022/10/29 14:01:11;;;;;;;;;;;16.50;87.60;;;;;;5032681;28;19936;-69
2022/10/29 14:03:46;;;;;;;;;;;16.50;88.20;;;;;;5033264;28;19964;-71
2022/10/29 14:06:20;;;;;;;;;;;16.40;88.20;;;;;;5043163;28;19913;-70
2022/10/29 14:08:49;;;;;;;;;;;16.40;88.40;;;;;;5046648;28;20344;-72
2022/10/29 14:11:22;;;;;;;;;;;16.30;88.30;;;;;;5032405;28;19940;-71
2022/10/29 14:13:52;;;;;;;;;;;16.30;88.20;;;;;;5032691;28;19913;-68
2022/10/29 14:16:30;;;;;;;;;;;16.20;88.10;;;;;;5038953;28;19912;-69
2022/10/29 14:18:56;;;;;;;;;;;16.20;88.40;;;;;;5045957;28;20377;-72
2022/10/29 14:21:24;;;;;;;;;;;16.20;88.20;;;;;;5041418;28;19913;-70
2022/10/29 14:24:04;;;;;;;;;;;16.10;88.10;;;;;;5050493;28;19920;-70
2022/10/29 14:26:35;;;;;;;;;;;16.10;88.40;;;;;;5052075;28;19939;-69
2022/10/29 14:29:22;;;;;;;;;;;16.00;88.90;;;;;;5051061;28;19943;-72
2022/10/29 14:32:18;;;;;;;;;;;16.00;88.50;;;;;;5051258;28;19924;-69